createdAt,value
2023-05-06T00:02:19.914Z,1.70
2023-05-06T00:04:46.418Z,1.83
2023-05-06T00:07:13.009Z,1.90
2023-05-06T00:09:39.424Z,2.00
2023-05-06T00:12:05.892Z,2.10
2023-05-06T00:14:32.317Z,2.22
2023-05-06T00:16:58.773Z,1.60
2023-05-06T00:19:25.188Z,2.45
2023-05-06T00:21:51.628Z,1.95
2023-05-06T00:24:18.082Z,1.88
2023-05-06T00:26:44.496Z,2.45
2023-05-06T00:29:10.889Z,1.80
2023-05-06T00:31:37.385Z,2.20
2023-05-06T00:34:03.985Z,10.45
2023-05-06T00:36:31.561Z,1.85
2023-05-06T00:38:58.028Z,2.83
2023-05-06T00:41:24.512Z,1.75
2023-05-06T00:43:52.287Z,2.30
2023-05-06T00:46:18.851Z,1.70
2023-05-06T00:48:45.444Z,2.28
2023-05-06T00:51:12.810Z,2.17
2023-05-06T00:53:39.945Z,2.38
2023-05-06T00:56:06.486Z,2.10
2023-05-06T00:58:34.127Z,2.28
2023-05-06T01:01:01.693Z,2.05
2023-05-06T01:03:28.405Z,2.35
2023-05-06T01:06:11.236Z,2.00
2023-05-06T01:08:46.913Z,1.90
2023-05-06T01:11:24.169Z,3.47
2023-05-06T01:13:59.134Z,3.05
2023-05-06T01:16:30.791Z,2.17
2023-05-06T01:19:00.236Z,1.77
2023-05-06T01:21:34.528Z,1.77
2023-05-06T01:24:01.719Z,2.00
2023-05-06T01:26:28.172Z,1.90
2023-05-06T01:28:54.856Z,2.20
2023-05-06T01:31:25.828Z,1.50
2023-05-06T01:34:14.106Z,1.50
2023-05-06T01:36:55.431Z,5.32
2023-05-06T01:39:26.347Z,3.75
2023-05-06T01:41:57.314Z,2.40
2023-05-06T01:44:24.862Z,1.75
2023-05-06T01:46:53.759Z,1.95
2023-05-06T01:49:22.036Z,1.95
2023-05-06T01:51:53.813Z,2.90
2023-05-06T01:54:20.377Z,1.70
2023-05-06T01:56:47.008Z,2.47
2023-05-06T01:59:14.848Z,1.90
2023-05-06T02:01:41.364Z,2.10
2023-05-06T02:04:07.838Z,2.10
2023-05-06T02:06:34.343Z,2.20
2023-05-06T02:09:01.038Z,2.33
2023-05-06T02:11:28.755Z,1.52
2023-05-06T02:14:02.057Z,2.83
2023-05-06T02:16:30.788Z,6.85
2023-05-06T02:18:57.353Z,7.07
2023-05-06T02:21:23.844Z,4.25
2023-05-06T02:23:50.620Z,4.90
2023-05-06T02:26:17.403Z,8.35
2023-05-06T02:28:43.827Z,22.77
2023-05-06T02:31:16.115Z,5.28
2023-05-06T02:33:43.394Z,22.83
2023-05-06T02:36:11.203Z,5.70
2023-05-06T02:38:37.655Z,9.52
2023-05-06T02:41:04.111Z,25.08
2023-05-06T02:43:30.562Z,21.38
2023-05-06T02:45:58.174Z,14.57
2023-05-06T02:48:25.562Z,26.10
2023-05-06T02:50:52.033Z,23.30
2023-05-06T02:53:18.478Z,6.63
2023-05-06T02:55:44.920Z,2.70
2023-05-06T02:58:11.310Z,18.80
2023-05-06T03:00:37.724Z,13.20
2023-05-06T03:03:04.289Z,6.25
2023-05-06T03:05:30.773Z,26.50
2023-05-06T03:07:57.543Z,6.45
2023-05-06T03:10:24.049Z,47.55
2023-05-06T03:12:51.107Z,35.78
2023-05-06T03:15:17.866Z,10.40
2023-05-06T03:17:46.506Z,12.70
2023-05-06T03:20:13.771Z,21.73
2023-05-06T03:22:45.684Z,16.33
2023-05-06T03:25:12.320Z,10.20
2023-05-06T03:27:40.733Z,30.63
2023-05-06T03:30:15.381Z,12.65
2023-05-06T03:32:42.761Z,11.30
2023-05-06T03:35:12.924Z,13.95
2023-05-06T03:37:42.365Z,26.33
2023-05-06T03:40:09.399Z,11.00
2023-05-06T03:42:35.942Z,11.25
2023-05-06T03:45:03.136Z,20.13
2023-05-06T03:47:32.192Z,7.07
2023-05-06T03:49:59.249Z,9.32
2023-05-06T03:52:26.009Z,12.07
2023-05-06T03:54:52.802Z,19.95
2023-05-06T03:57:19.250Z,10.30
2023-05-06T03:59:45.705Z,10.23
2023-05-06T04:02:12.228Z,28.10
2023-05-06T04:04:38.780Z,9.18
2023-05-06T04:07:05.214Z,6.97
2023-05-06T04:09:32.968Z,3.38
2023-05-06T04:12:03.294Z,3.00
2023-05-06T04:14:30.612Z,2.13
2023-05-06T04:16:57.566Z,2.10
2023-05-06T04:19:24.033Z,1.77
2023-05-06T04:21:50.523Z,1.95
2023-05-06T04:24:18.511Z,2.38
2023-05-06T04:26:45.734Z,1.67
2023-05-06T04:29:12.707Z,2.00
2023-05-06T04:31:55.609Z,2.22
2023-05-06T04:34:25.024Z,1.90
2023-05-06T04:36:54.180Z,1.40
2023-05-06T04:39:28.718Z,2.17
2023-05-06T04:41:56.633Z,2.60
2023-05-06T04:44:30.884Z,6.43
2023-05-06T04:46:57.715Z,4.13
2023-05-06T04:49:24.220Z,31.25
2023-05-06T04:51:51.655Z,24.42
2023-05-06T04:54:18.961Z,45.22
2023-05-06T04:56:45.877Z,26.58
2023-05-06T04:59:14.537Z,14.27
2023-05-06T05:01:42.710Z,25.27
2023-05-06T05:04:10.753Z,21.60
2023-05-06T05:06:37.509Z,15.45
2023-05-06T05:09:04.344Z,10.55
2023-05-06T05:11:31.626Z,7.25
2023-05-06T05:14:00.920Z,11.60
2023-05-06T05:16:28.988Z,7.57
2023-05-06T05:18:55.684Z,15.90
2023-05-06T05:21:27.606Z,6.88
2023-05-06T05:23:55.171Z,3.35
2023-05-06T05:26:21.763Z,8.63
2023-05-06T05:28:50.734Z,4.30
2023-05-06T05:31:17.240Z,13.98
2023-05-06T05:33:43.799Z,8.52
2023-05-06T05:36:15.366Z,11.73
2023-05-06T05:38:43.309Z,1.52
2023-05-06T05:41:10.237Z,1.92
2023-05-06T05:43:36.918Z,2.90
2023-05-06T05:46:03.655Z,2.08
2023-05-06T05:48:32.787Z,2.35
2023-05-06T05:51:02.272Z,1.60
2023-05-06T05:53:29.122Z,2.38
2023-05-06T05:55:55.721Z,3.47
2023-05-06T05:58:22.253Z,1.85
2023-05-06T06:00:49.063Z,1.75
2023-05-06T06:03:18.721Z,1.33
2023-05-06T06:05:45.215Z,7.50
2023-05-06T06:08:12.823Z,1.45
2023-05-06T06:10:39.883Z,1.88
2023-05-06T06:13:13.306Z,2.78
2023-05-06T06:15:40.557Z,1.50
2023-05-06T06:18:08.890Z,7.18
2023-05-06T06:20:36.809Z,2.50
2023-05-06T06:23:03.271Z,2.42
2023-05-06T06:25:29.735Z,2.08
2023-05-06T06:27:56.277Z,2.05
2023-05-06T06:30:23.883Z,2.10
2023-05-06T06:32:52.763Z,3.05
2023-05-06T06:35:20.152Z,2.00
2023-05-06T06:37:47.395Z,2.28
2023-05-06T06:40:14.056Z,2.10
2023-05-06T06:42:40.648Z,1.80
2023-05-06T06:45:18.912Z,1.92
2023-05-06T06:47:45.690Z,2.03
2023-05-06T06:50:12.418Z,1.75
2023-05-06T06:52:38.941Z,1.90
2023-05-06T06:55:05.786Z,2.05
2023-05-06T06:57:32.332Z,1.58
2023-05-06T06:59:58.754Z,2.13
2023-05-06T07:02:25.170Z,2.30
2023-05-06T07:04:52.078Z,4.60
2023-05-06T07:07:18.521Z,2.45
2023-05-06T07:09:44.956Z,2.17
2023-05-06T07:12:12.017Z,2.17
2023-05-06T07:14:38.434Z,1.80
2023-05-06T07:17:04.983Z,2.30
2023-05-06T07:19:31.611Z,2.33
2023-05-06T07:21:58.182Z,2.25
2023-05-06T07:24:24.744Z,2.50
2023-05-06T07:26:51.145Z,3.63
2023-05-06T07:29:17.658Z,3.22
2023-05-06T07:31:44.135Z,1.88
2023-05-06T07:34:11.017Z,3.83
2023-05-06T07:36:40.768Z,2.70
2023-05-06T07:39:07.874Z,2.00
2023-05-06T07:41:34.490Z,1.73
2023-05-06T07:44:01.373Z,2.20
2023-05-06T07:46:28.015Z,1.67
2023-05-06T07:48:54.506Z,2.20
2023-05-06T07:51:21.705Z,1.90
2023-05-06T07:53:48.119Z,1.85
2023-05-06T07:56:14.672Z,1.95
2023-05-06T07:58:41.131Z,1.75
2023-05-06T08:01:07.656Z,1.70
2023-05-06T08:03:35.121Z,1.90
2023-05-06T08:06:01.916Z,1.50
2023-05-06T08:08:28.408Z,1.73
2023-05-06T08:10:58.920Z,2.08
2023-05-06T08:13:26.132Z,1.50
2023-05-06T08:15:52.989Z,1.92
2023-05-06T08:18:22.931Z,2.03
2023-05-06T08:20:50.146Z,1.90
2023-05-06T08:23:16.718Z,2.53
2023-05-06T08:25:43.204Z,1.85
2023-05-06T08:28:09.629Z,1.45
2023-05-06T08:30:36.608Z,1.95
2023-05-06T08:33:03.246Z,2.85
2023-05-06T08:35:29.740Z,1.95
2023-05-06T08:37:56.149Z,1.70
2023-05-06T08:40:23.879Z,2.55
2023-05-06T08:42:50.801Z,1.75
2023-05-06T08:45:17.915Z,1.63
2023-05-06T08:47:44.924Z,4.45
2023-05-06T08:50:12.508Z,2.80
2023-05-06T08:52:39.684Z,1.58
2023-05-06T08:55:07.383Z,1.55
2023-05-06T08:57:36.884Z,4.13
2023-05-06T09:00:04.844Z,1.50
2023-05-06T09:02:31.431Z,2.08
2023-05-06T09:04:58.099Z,1.90
2023-05-06T09:07:24.593Z,1.83
2023-05-06T09:09:51.658Z,1.50
2023-05-06T09:12:18.509Z,2.15
2023-05-06T09:14:46.574Z,3.08
2023-05-06T09:17:28.151Z,1.98
2023-05-06T09:19:57.008Z,2.63
2023-05-06T09:22:24.689Z,3.55
2023-05-06T09:24:57.516Z,1.67
2023-05-06T09:27:29.078Z,1.67
2023-05-06T09:30:06.225Z,1.70
2023-05-06T09:32:33.504Z,1.98
2023-05-06T09:35:00.947Z,1.90
2023-05-06T09:37:28.207Z,1.45
2023-05-06T09:39:56.681Z,3.22
2023-05-06T09:42:25.322Z,1.65
2023-05-06T09:44:53.952Z,1.92
2023-05-06T09:47:27.859Z,1.67
2023-05-06T09:50:00.747Z,5.07
2023-05-06T09:52:28.488Z,3.55
2023-05-06T09:54:55.707Z,1.95
2023-05-06T09:57:22.825Z,1.77
2023-05-06T09:59:51.989Z,1.52
2023-05-06T10:02:19.670Z,2.58
2023-05-06T10:04:48.969Z,1.67
2023-05-06T10:07:19.686Z,1.17
2023-05-06T10:09:48.824Z,1.75
2023-05-06T10:12:16.386Z,1.55
2023-05-06T10:14:42.876Z,1.50
2023-05-06T10:17:11.494Z,1.50
2023-05-06T10:19:44.776Z,1.30
2023-05-06T10:22:33.985Z,9.98
2023-05-06T10:25:37.628Z,1.15
2023-05-06T10:28:07.280Z,1.38
2023-05-06T10:30:40.538Z,1.42
2023-05-06T10:33:09.458Z,3.72
2023-05-06T10:35:47.145Z,2.67
2023-05-06T10:38:26.661Z,2.33
2023-05-06T10:40:54.572Z,1.50
2023-05-06T10:43:34.100Z,1.92
2023-05-06T10:46:18.797Z,1.35
2023-05-06T10:49:08.484Z,1.63
2023-05-06T10:51:39.180Z,2.78
2023-05-06T10:54:20.588Z,1.58
2023-05-06T10:56:50.013Z,1.30
2023-05-06T10:59:25.785Z,1.60
2023-05-06T11:04:23.639Z,1.17
2023-05-06T11:06:53.012Z,0.80
2023-05-06T11:09:24.591Z,1.38
2023-05-06T11:12:05.305Z,1.30
2023-05-06T11:14:37.793Z,1.10
2023-05-06T11:17:06.785Z,1.35
2023-05-06T11:19:34.243Z,1.13
2023-05-06T11:22:02.393Z,1.77
2023-05-06T11:24:37.966Z,0.98
2023-05-06T11:27:05.537Z,1.50
2023-05-06T11:29:32.260Z,1.00
2023-05-06T11:31:59.159Z,1.10
2023-05-06T11:34:28.691Z,1.88
2023-05-06T11:37:02.341Z,1.48
2023-05-06T11:39:31.152Z,1.20
2023-05-06T11:42:07.872Z,1.17
2023-05-06T11:44:36.749Z,1.25
2023-05-06T11:47:07.948Z,1.20
2023-05-06T11:49:43.692Z,2.47
2023-05-06T11:54:41.792Z,1.40
2023-05-06T11:57:09.232Z,1.02
2023-05-06T11:59:37.776Z,1.20
2023-05-06T12:02:06.732Z,1.77
2023-05-06T12:04:48.139Z,2.40
2023-05-06T12:07:16.156Z,2.10
2023-05-06T12:09:45.738Z,1.15
2023-05-06T12:12:14.641Z,1.27
2023-05-06T12:14:41.678Z,1.33
2023-05-06T12:17:08.388Z,1.30
2023-05-06T12:19:36.506Z,1.08
2023-05-06T12:22:22.091Z,1.10
2023-05-06T12:24:48.996Z,1.10
2023-05-06T12:27:29.269Z,1.05
2023-05-06T12:29:56.534Z,1.30
2023-05-06T12:32:23.032Z,1.00
2023-05-06T12:34:49.501Z,1.92
2023-05-06T12:37:27.416Z,1.83
2023-05-06T12:39:55.682Z,1.50
2023-05-06T12:42:24.237Z,1.10
2023-05-06T12:44:50.857Z,1.20
2023-05-06T12:47:22.793Z,2.35
2023-05-06T12:49:53.652Z,1.30
2023-05-06T12:52:22.110Z,2.47
2023-05-06T12:54:49.457Z,1.02
2023-05-06T12:57:16.476Z,2.40
2023-05-06T12:59:45.298Z,1.58
2023-05-06T13:02:12.463Z,1.75
2023-05-06T13:04:39.342Z,1.25
2023-05-06T13:07:06.136Z,3.17
2023-05-06T13:09:33.159Z,1.10
2023-05-06T13:11:59.682Z,1.55
2023-05-06T13:14:26.448Z,1.75
2023-05-06T13:16:53.218Z,1.80
2023-05-06T13:19:31.678Z,1.27
2023-05-06T13:22:00.282Z,1.50
2023-05-06T13:24:27.040Z,1.58
2023-05-06T13:26:53.479Z,1.13
2023-05-06T13:29:19.953Z,4.05
2023-05-06T13:31:46.412Z,0.93
2023-05-06T13:34:12.872Z,2.20
2023-05-06T13:36:39.362Z,1.13
2023-05-06T13:39:05.897Z,0.90
2023-05-06T13:41:32.784Z,1.10
2023-05-06T13:43:59.323Z,1.20
2023-05-06T13:46:27.182Z,1.00
2023-05-06T13:48:53.677Z,0.90
2023-05-06T13:51:20.173Z,1.60
2023-05-06T13:53:46.606Z,1.77
2023-05-06T13:56:13.087Z,1.58
2023-05-06T13:58:39.515Z,1.00
2023-05-06T14:01:06.072Z,0.77
2023-05-06T14:03:32.527Z,0.85
2023-05-06T14:05:59.046Z,1.80
2023-05-06T14:08:25.661Z,0.90
2023-05-06T14:10:52.084Z,0.65
2023-05-06T14:13:18.530Z,0.95
2023-05-06T14:15:45.066Z,2.55
2023-05-06T14:18:11.760Z,0.90
2023-05-06T14:20:39.064Z,1.38
2023-05-06T14:23:06.903Z,1.95
2023-05-06T14:25:33.408Z,0.98
2023-05-06T14:28:00.193Z,1.13
2023-05-06T14:30:26.697Z,1.60
2023-05-06T14:32:53.139Z,1.23
2023-05-06T14:35:19.789Z,2.30
2023-05-06T14:37:46.385Z,1.02
2023-05-06T14:40:13.193Z,1.50
2023-05-06T14:42:40.748Z,1.38
2023-05-06T14:45:08.036Z,1.95
2023-05-06T14:47:34.611Z,0.88
2023-05-06T14:50:01.079Z,0.85
2023-05-06T14:52:27.599Z,1.23
2023-05-06T14:54:54.010Z,1.67
2023-05-06T14:57:20.649Z,1.10
2023-05-06T14:59:47.246Z,1.00
2023-05-06T15:02:13.799Z,1.58
2023-05-06T15:04:40.300Z,2.58
2023-05-06T15:07:06.722Z,0.82
2023-05-06T15:09:33.157Z,0.80
2023-05-06T15:12:00.403Z,1.67
2023-05-06T15:14:26.836Z,1.25
2023-05-06T15:16:57.174Z,1.02
2023-05-06T15:19:24.037Z,1.38
2023-05-06T15:21:50.961Z,1.13
2023-05-06T15:24:17.452Z,1.00
2023-05-06T15:26:44.008Z,2.30
2023-05-06T15:29:10.484Z,1.25
2023-05-06T15:31:39.412Z,1.27
2023-05-06T15:34:07.091Z,0.90
2023-05-06T15:36:33.615Z,2.10
2023-05-06T15:39:01.044Z,2.20
2023-05-06T15:41:29.384Z,2.55
2023-05-06T15:44:00.303Z,1.33
2023-05-06T15:46:28.347Z,1.17
2023-05-06T15:49:15.637Z,1.45
2023-05-06T15:51:41.966Z,1.50
2023-05-06T15:54:08.844Z,3.10
2023-05-06T15:56:40.586Z,1.23
2023-05-06T15:59:08.228Z,0.80
2023-05-06T16:02:00.698Z,1.33
2023-05-06T16:04:21.485Z,0.70
2023-05-06T16:06:48.176Z,1.05
2023-05-06T16:09:14.741Z,0.80
2023-05-06T16:11:41.161Z,0.85
2023-05-06T16:14:07.606Z,0.98
2023-05-06T16:16:34.065Z,1.05
2023-05-06T16:19:00.579Z,1.58
2023-05-06T16:21:27.181Z,1.40
2023-05-06T16:23:53.650Z,0.82
2023-05-06T16:26:20.151Z,1.52
2023-05-06T16:28:46.578Z,0.75
2023-05-06T16:31:13.035Z,1.42
2023-05-06T16:33:39.493Z,0.90
2023-05-06T16:36:06.398Z,1.05
2023-05-06T16:38:32.902Z,2.00
2023-05-06T16:40:59.331Z,1.33
2023-05-06T16:43:25.913Z,1.33
2023-05-06T16:45:52.329Z,1.85
2023-05-06T16:48:18.929Z,0.93
2023-05-06T16:50:46.195Z,0.98
2023-05-06T16:53:12.713Z,1.45
2023-05-06T16:55:39.163Z,1.35
2023-05-06T16:58:05.676Z,0.98
2023-05-06T17:00:32.292Z,1.67
2023-05-06T17:02:58.962Z,1.83
2023-05-06T17:05:27.979Z,1.40
2023-05-06T17:07:54.422Z,2.45
2023-05-06T17:10:21.942Z,2.35
2023-05-06T17:12:48.404Z,1.60
2023-05-06T17:15:15.043Z,3.10
2023-05-06T17:17:41.593Z,1.73
2023-05-06T17:20:08.707Z,5.45
2023-05-06T17:22:35.746Z,1.85
2023-05-06T17:25:03.369Z,1.00
2023-05-06T17:27:30.228Z,3.00
2023-05-06T17:29:56.647Z,2.35
2023-05-06T17:32:23.074Z,1.17
2023-05-06T17:34:49.587Z,1.02
2023-05-06T17:37:16.188Z,1.40
2023-05-06T17:39:42.642Z,1.50
2023-05-06T17:42:09.673Z,2.33
2023-05-06T17:44:37.994Z,1.20
2023-05-06T17:47:04.442Z,1.60
2023-05-06T17:49:31.141Z,1.77
2023-05-06T17:51:59.284Z,1.02
2023-05-06T17:54:26.719Z,1.38
2023-05-06T17:56:53.171Z,1.27
2023-05-06T17:59:20.943Z,2.65
2023-05-06T18:01:47.708Z,2.50
2023-05-06T18:04:14.352Z,1.92
2023-05-06T18:06:42.285Z,1.35
2023-05-06T18:09:10.255Z,4.43
2023-05-06T18:11:38.646Z,2.58
2023-05-06T18:14:05.913Z,1.50
2023-05-06T18:16:32.434Z,1.95
2023-05-06T18:19:00.838Z,1.77
2023-05-06T18:21:27.775Z,1.63
2023-05-06T18:23:58.796Z,5.13
2023-05-06T18:26:44.047Z,1.23
2023-05-06T18:29:12.258Z,1.33
2023-05-06T18:31:38.752Z,2.50
2023-05-06T18:34:05.236Z,1.83
2023-05-06T18:36:32.074Z,2.38
2023-05-06T18:38:58.556Z,2.10
2023-05-06T18:41:25.027Z,4.63
2023-05-06T18:43:51.436Z,3.40
2023-05-06T18:46:17.927Z,2.10
2023-05-06T18:48:44.884Z,1.67
2023-05-06T18:51:17.005Z,1.75
2023-05-06T18:53:44.048Z,1.98
2023-05-06T18:56:10.785Z,2.03
2023-05-06T18:58:38.873Z,2.70
2023-05-06T19:01:07.103Z,5.20
2023-05-06T19:03:34.836Z,3.50
2023-05-06T19:06:03.186Z,4.15
2023-05-06T19:08:30.840Z,4.57
2023-05-06T19:10:59.539Z,3.38
2023-05-06T19:13:26.541Z,3.63
2023-05-06T19:15:53.436Z,6.20
2023-05-06T19:18:19.910Z,10.32
2023-05-06T19:20:46.512Z,8.50
2023-05-06T19:23:13.165Z,11.10
2023-05-06T19:25:39.793Z,12.63
2023-05-06T19:28:06.522Z,12.13
2023-05-06T19:30:34.538Z,8.77
2023-05-06T19:33:02.072Z,7.63
2023-05-06T19:35:28.553Z,10.15
2023-05-06T19:37:56.068Z,10.48
2023-05-06T19:40:22.724Z,8.35
2023-05-06T19:42:49.439Z,10.23
2023-05-06T19:45:17.517Z,7.43
2023-05-06T19:47:45.726Z,4.82
2023-05-06T19:50:12.786Z,3.45
2023-05-06T19:52:39.870Z,4.13
2023-05-06T19:55:06.872Z,4.15
2023-05-06T19:57:33.872Z,3.70
2023-05-06T20:00:05.135Z,6.10
2023-05-06T20:02:32.793Z,3.38
2023-05-06T20:05:00.345Z,3.42
2023-05-06T20:07:27.259Z,2.65
2023-05-06T20:09:55.457Z,4.75
2023-05-06T20:12:23.054Z,2.33
2023-05-06T20:14:49.685Z,2.80
2023-05-06T20:17:16.588Z,2.45
2023-05-06T20:19:43.097Z,2.33
2023-05-06T20:22:09.556Z,2.10
2023-05-06T20:24:37.072Z,3.72
2023-05-06T20:27:03.661Z,4.57
2023-05-06T20:29:30.111Z,2.33
2023-05-06T20:31:56.570Z,1.80
2023-05-06T20:34:22.968Z,3.80
2023-05-06T20:36:49.877Z,3.00
2023-05-06T20:39:16.514Z,4.18
2023-05-06T20:41:42.952Z,2.95
2023-05-06T20:44:09.453Z,2.80
2023-05-06T20:46:36.066Z,3.47
2023-05-06T20:49:02.512Z,3.50
2023-05-06T20:51:28.998Z,3.50
2023-05-06T20:53:56.519Z,5.05
2023-05-06T20:56:27.324Z,4.53
2023-05-06T20:58:55.424Z,4.20
2023-05-06T21:01:23.575Z,4.78
2023-05-06T21:03:50.252Z,8.13
2023-05-06T21:06:17.783Z,3.65
2023-05-06T21:08:45.626Z,5.13
2023-05-06T21:11:12.653Z,6.50
2023-05-06T21:13:39.824Z,4.28
2023-05-06T21:16:06.219Z,4.25
2023-05-06T21:18:32.726Z,3.95
2023-05-06T21:20:59.716Z,4.38
2023-05-06T21:23:26.473Z,5.15
2023-05-06T21:25:53.025Z,3.80
2023-05-06T21:28:19.450Z,3.75
2023-05-06T21:30:46.027Z,4.20
2023-05-06T21:33:12.631Z,4.57
2023-05-06T21:35:39.068Z,4.55
2023-05-06T21:38:05.505Z,5.03
2023-05-06T21:40:31.939Z,3.70
2023-05-06T21:42:58.418Z,3.63
2023-05-06T21:45:24.922Z,3.72
2023-05-06T21:47:51.427Z,4.93
2023-05-06T21:50:17.933Z,3.72
2023-05-06T21:52:44.363Z,3.10
2023-05-06T21:55:11.221Z,2.72
2023-05-06T21:57:38.679Z,3.03
2023-05-06T22:00:12.112Z,2.53
2023-05-06T22:02:40.011Z,3.20
2023-05-06T22:05:08.258Z,4.18
2023-05-06T22:07:35.748Z,4.20
2023-05-06T22:10:02.510Z,6.25
2023-05-06T22:12:29.037Z,5.45
2023-05-06T22:14:55.876Z,4.40
2023-05-06T22:17:22.489Z,4.18
2023-05-06T22:19:48.993Z,3.20
2023-05-06T22:22:16.251Z,3.20
2023-05-06T22:24:42.881Z,3.03
2023-05-06T22:27:09.300Z,3.67
2023-05-06T22:29:35.952Z,2.42
2023-05-06T22:32:02.570Z,3.47
2023-05-06T22:34:29.121Z,3.22
2023-05-06T22:36:57.592Z,3.50
2023-05-06T22:39:24.771Z,3.80
2023-05-06T22:41:52.257Z,3.55
2023-05-06T22:44:18.669Z,4.13
2023-05-06T22:46:45.185Z,4.25
2023-05-06T22:49:11.602Z,4.65
2023-05-06T22:51:38.033Z,4.82
2023-05-06T22:54:04.535Z,4.82
2023-05-06T22:56:31.085Z,6.25
2023-05-06T22:58:57.518Z,3.25
2023-05-06T23:01:26.062Z,3.10
2023-05-06T23:03:52.805Z,2.72
2023-05-06T23:06:19.294Z,3.58
2023-05-06T23:08:45.763Z,2.60
2023-05-06T23:11:12.181Z,3.70
2023-05-06T23:13:38.600Z,2.20
2023-05-06T23:16:07.619Z,2.50
2023-05-06T23:18:34.083Z,2.63
2023-05-06T23:21:00.514Z,3.63
2023-05-06T23:23:26.926Z,4.20
2023-05-06T23:25:53.353Z,4.65
2023-05-06T23:28:20.654Z,3.80
2023-05-06T23:30:47.220Z,4.43
2023-05-06T23:33:14.204Z,3.30
2023-05-06T23:35:40.909Z,3.47
2023-05-06T23:38:07.488Z,2.80
2023-05-06T23:40:33.956Z,3.13
2023-05-06T23:43:00.487Z,4.15
2023-05-06T23:45:27.065Z,3.33
2023-05-06T23:47:53.965Z,4.32
2023-05-06T23:50:20.563Z,2.95
2023-05-06T23:52:47.084Z,3.17
2023-05-06T23:55:13.668Z,2.60
2023-05-06T23:57:40.336Z,3.42
